Main page
METAR-TAF:

METAR-TAF

Airports :

Montpellier, France

Montpellier–Méditerranée Airport

latitude: 43-35N, longitude: 003-58E, elevation: 5 m

Current weather observation

The report was made 43 minutes ago, at 16:00 UTC
Wind 10 kt from the South
Temperature 25°C
Humidity 61%
Pressure 1014 hPa
Visibility 10 km or more
no clouds below 1500 m and no cumulonimbus

METAR: LFMT 221600Z AUTO 19010KT CAVOK 25/17 Q1014 NOSIG

Time: 18:43 (16:43 UTC)

Forecast

The report was made 2 hours and 43 minutes ago, at 14:00 UTC
Forecast valid from 22 at 15 UTC to 23 at 15 UTC
Wind 10 kt from the South
Visibility 10 km or more
no clouds below 1500 m and no cumulonimbus
Temporary
from 22 at 20 UTC to 23 at 10 UTC
Wind 5 kt from variable directions
Temporary
from 23 at 01 UTC to 23 at 06 UTC
Broken clouds at a height of 500 ft
Temporary
from 23 at 12 UTC to 23 at 15 UTC
Wind 15 kt from the West

TAF: LFMT 221400Z 2215/2315 19010KT CAVOK TEMPO 2220/2310 VRB05KT TEMPO 2301/2306 BKN005 TEMPO 2312/2315 26015KT

Weather observations and forecasts of more than 4000 airports (METAR and TAF reports).

The available stations are represented by yellow and red dots on the map.

Hover mouse over dot to see the name of the station.

Then click to see weather observations and forecasts.

To change the map : click on the green buttons with a black cross to zoom in, on the green button with a dash to zoom out, or on the green arrows for adjacent maps.


METAR-TAF: